sensor_id;sensor_type;location;lat;lon;timestamp;P1;durP1;ratioP1;P2;durP2;ratioP2
22937;SDS011;11634;42.734;23.298;2022-12-18T00:01:21;11.85;;;9.30;;
22937;SDS011;11634;42.734;23.298;2022-12-18T00:03:57;11.52;;;9.30;;
22937;SDS011;11634;42.734;23.298;2022-12-18T00:06:23;10.52;;;8.38;;
22937;SDS011;11634;42.734;23.298;2022-12-18T00:08:52;10.45;;;7.93;;
22937;SDS011;11634;42.734;23.298;2022-12-18T00:11:21;11.52;;;9.18;;
22937;SDS011;11634;42.734;23.298;2022-12-18T00:13:49;12.77;;;9.82;;
22937;SDS011;11634;42.734;23.298;2022-12-18T00:16:16;11.70;;;8.45;;
22937;SDS011;11634;42.734;23.298;2022-12-18T00:18:47;15.15;;;10.43;;
22937;SDS011;11634;42.734;23.298;2022-12-18T00:21:15;11.32;;;8.68;;
22937;SDS011;11634;42.734;23.298;2022-12-18T00:23:41;14.07;;;10.40;;
22937;SDS011;11634;42.734;23.298;2022-12-18T00:26:19;14.18;;;11.80;;
22937;SDS011;11634;42.734;23.298;2022-12-18T00:28:48;10.95;;;9.55;;
22937;SDS011;11634;42.734;23.298;2022-12-18T00:31:16;13.45;;;9.52;;
22937;SDS011;11634;42.734;23.298;2022-12-18T00:33:43;13.45;;;10.30;;
22937;SDS011;11634;42.734;23.298;2022-12-18T00:36:10;14.55;;;11.88;;
22937;SDS011;11634;42.734;23.298;2022-12-18T00:38:39;14.25;;;11.20;;
22937;SDS011;11634;42.734;23.298;2022-12-18T00:41:06;14.15;;;10.98;;
22937;SDS011;11634;42.734;23.298;2022-12-18T00:43:36;14.18;;;10.73;;
22937;SDS011;11634;42.734;23.298;2022-12-18T00:46:05;12.70;;;10.23;;
22937;SDS011;11634;42.734;23.298;2022-12-18T00:48:32;13.07;;;10.57;;
22937;SDS011;11634;42.734;23.298;2022-12-18T00:50:57;12.18;;;9.60;;
22937;SDS011;11634;42.734;23.298;2022-12-18T00:53:24;14.90;;;10.70;;
22937;SDS011;11634;42.734;23.298;2022-12-18T00:55:50;12.18;;;10.00;;
22937;SDS011;11634;42.734;23.298;2022-12-18T00:58:16;14.68;;;10.82;;
22937;SDS011;11634;42.734;23.298;2022-12-18T01:00:43;14.23;;;10.93;;
22937;SDS011;11634;42.734;23.298;2022-12-18T01:03:14;11.18;;;9.45;;
22937;SDS011;11634;42.734;23.298;2022-12-18T01:05:42;13.05;;;9.30;;
22937;SDS011;11634;42.734;23.298;2022-12-18T01:08:08;12.63;;;9.18;;
22937;SDS011;11634;42.734;23.298;2022-12-18T01:10:35;12.55;;;10.20;;
22937;SDS011;11634;42.734;23.298;2022-12-18T01:13:02;13.80;;;11.52;;
22937;SDS011;11634;42.734;23.298;2022-12-18T01:15:31;11.10;;;9.00;;
22937;SDS011;11634;42.734;23.298;2022-12-18T01:17:56;15.27;;;12.18;;
22937;SDS011;11634;42.734;23.298;2022-12-18T01:20:26;14.77;;;10.73;;
22937;SDS011;11634;42.734;23.298;2022-12-18T01:22:52;14.43;;;11.10;;
22937;SDS011;11634;42.734;23.298;2022-12-18T01:25:17;14.07;;;10.35;;
22937;SDS011;11634;42.734;23.298;2022-12-18T01:27:44;15.90;;;11.02;;
22937;SDS011;11634;42.734;23.298;2022-12-18T01:30:10;17.20;;;11.77;;
22937;SDS011;11634;42.734;23.298;2022-12-18T01:32:37;17.08;;;13.20;;
22937;SDS011;11634;42.734;23.298;2022-12-18T01:35:04;12.48;;;8.95;;
22937;SDS011;11634;42.734;23.298;2022-12-18T01:37:31;16.92;;;11.50;;
22937;SDS011;11634;42.734;23.298;2022-12-18T01:39:58;13.13;;;10.00;;
22937;SDS011;11634;42.734;23.298;2022-12-18T01:42:27;14.88;;;10.95;;
22937;SDS011;11634;42.734;23.298;2022-12-18T01:52:52;14.73;;;10.95;;
22937;SDS011;11634;42.734;23.298;2022-12-18T01:55:20;14.93;;;11.13;;
22937;SDS011;11634;42.734;23.298;2022-12-18T01:57:52;14.85;;;10.65;;
22937;SDS011;11634;42.734;23.298;2022-12-18T02:00:21;16.75;;;11.13;;
22937;SDS011;11634;42.734;23.298;2022-12-18T02:02:50;15.95;;;11.95;;
22937;SDS011;11634;42.734;23.298;2022-12-18T02:05:19;16.50;;;11.02;;
22937;SDS011;11634;42.734;23.298;2022-12-18T02:08:15;13.75;;;10.90;;
22937;SDS011;11634;42.734;23.298;2022-12-18T02:11:07;12.73;;;10.27;;
22937;SDS011;11634;42.734;23.298;2022-12-18T02:16:59;13.50;;;10.95;;
22937;SDS011;11634;42.734;23.298;2022-12-18T02:19:48;13.50;;;10.18;;
22937;SDS011;11634;42.734;23.298;2022-12-18T02:25:40;12.90;;;9.40;;
22937;SDS011;11634;42.734;23.298;2022-12-18T02:28:30;10.70;;;7.60;;
22937;SDS011;11634;42.734;23.298;2022-12-18T02:31:04;11.32;;;9.27;;
22937;SDS011;11634;42.734;23.298;2022-12-18T02:33:33;10.57;;;8.85;;
22937;SDS011;11634;42.734;23.298;2022-12-18T02:36:03;14.25;;;9.93;;
22937;SDS011;11634;42.734;23.298;2022-12-18T02:38:31;11.32;;;8.52;;
22937;SDS011;11634;42.734;23.298;2022-12-18T02:41:06;10.68;;;8.10;;
22937;SDS011;11634;42.734;23.298;2022-12-18T02:43:34;10.48;;;8.73;;
22937;SDS011;11634;42.734;23.298;2022-12-18T02:46:20;10.80;;;8.75;;
22937;SDS011;11634;42.734;23.298;2022-12-18T02:49:00;10.30;;;8.52;;
22937;SDS011;11634;42.734;23.298;2022-12-18T02:51:48;12.48;;;9.20;;
22937;SDS011;11634;42.734;23.298;2022-12-18T02:57:35;14.88;;;10.35;;
22937;SDS011;11634;42.734;23.298;2022-12-18T03:03:15;11.85;;;7.32;;
22937;SDS011;11634;42.734;23.298;2022-12-18T03:05:57;12.02;;;8.95;;
22937;SDS011;11634;42.734;23.298;2022-12-18T03:08:41;13.65;;;10.73;;
22937;SDS011;11634;42.734;23.298;2022-12-18T03:11:11;11.40;;;8.60;;
22937;SDS011;11634;42.734;23.298;2022-12-18T03:13:46;14.35;;;10.70;;
22937;SDS011;11634;42.734;23.298;2022-12-18T03:16:24;14.68;;;10.35;;
22937;SDS011;11634;42.734;23.298;2022-12-18T03:21:45;13.43;;;10.52;;
22937;SDS011;11634;42.734;23.298;2022-12-18T03:24:15;14.05;;;10.60;;
22937;SDS011;11634;42.734;23.298;2022-12-18T03:26:46;13.20;;;9.98;;
22937;SDS011;11634;42.734;23.298;2022-12-18T03:29:17;11.13;;;7.50;;
22937;SDS011;11634;42.734;23.298;2022-12-18T03:31:51;11.70;;;10.18;;
22937;SDS011;11634;42.734;23.298;2022-12-18T03:34:29;10.75;;;8.32;;
22937;SDS011;11634;42.734;23.298;2022-12-18T03:37:01;13.77;;;8.82;;
22937;SDS011;11634;42.734;23.298;2022-12-18T03:39:32;9.80;;;8.40;;
22937;SDS011;11634;42.734;23.298;2022-12-18T03:42:07;14.60;;;10.15;;
22937;SDS011;11634;42.734;23.298;2022-12-18T03:47:52;12.95;;;9.90;;
22937;SDS011;11634;42.734;23.298;2022-12-18T03:56:31;12.73;;;9.55;;
22937;SDS011;11634;42.734;23.298;2022-12-18T03:59:01;10.05;;;8.15;;
22937;SDS011;11634;42.734;23.298;2022-12-18T04:01:32;14.68;;;10.48;;
22937;SDS011;11634;42.734;23.298;2022-12-18T04:04:04;14.97;;;11.00;;
22937;SDS011;11634;42.734;23.298;2022-12-18T04:06:37;11.35;;;8.68;;
22937;SDS011;11634;42.734;23.298;2022-12-18T04:09:06;19.23;;;12.07;;
22937;SDS011;11634;42.734;23.298;2022-12-18T04:11:39;16.75;;;13.27;;
22937;SDS011;11634;42.734;23.298;2022-12-18T04:14:11;15.90;;;11.23;;
22937;SDS011;11634;42.734;23.298;2022-12-18T04:16:38;18.65;;;13.93;;
22937;SDS011;11634;42.734;23.298;2022-12-18T04:19:07;21.55;;;11.10;;
22937;SDS011;11634;42.734;23.298;2022-12-18T04:21:39;19.48;;;12.18;;
22937;SDS011;11634;42.734;23.298;2022-12-18T04:24:06;16.65;;;12.80;;
22937;SDS011;11634;42.734;23.298;2022-12-18T04:26:36;18.98;;;13.23;;
22937;SDS011;11634;42.734;23.298;2022-12-18T04:29:15;18.27;;;12.45;;
22937;SDS011;11634;42.734;23.298;2022-12-18T04:31:41;13.02;;;10.07;;
22937;SDS011;11634;42.734;23.298;2022-12-18T04:34:09;20.40;;;13.50;;
22937;SDS011;11634;42.734;23.298;2022-12-18T04:36:42;15.93;;;12.03;;
22937;SDS011;11634;42.734;23.298;2022-12-18T04:39:08;16.63;;;10.90;;
22937;SDS011;11634;42.734;23.298;2022-12-18T04:41:34;16.53;;;13.00;;
22937;SDS011;11634;42.734;23.298;2022-12-18T04:44:03;18.23;;;13.15;;
22937;SDS011;11634;42.734;23.298;2022-12-18T04:46:30;20.77;;;13.48;;
22937;SDS011;11634;42.734;23.298;2022-12-18T04:48:57;23.08;;;14.57;;
22937;SDS011;11634;42.734;23.298;2022-12-18T04:51:24;19.73;;;13.33;;
22937;SDS011;11634;42.734;23.298;2022-12-18T04:53:51;15.53;;;10.20;;
22937;SDS011;11634;42.734;23.298;2022-12-18T04:56:17;16.93;;;12.03;;
22937;SDS011;11634;42.734;23.298;2022-12-18T04:58:44;18.80;;;12.70;;
22937;SDS011;11634;42.734;23.298;2022-12-18T05:01:12;20.40;;;13.43;;
22937;SDS011;11634;42.734;23.298;2022-12-18T05:03:40;19.10;;;12.43;;
22937;SDS011;11634;42.734;23.298;2022-12-18T05:06:07;17.63;;;10.87;;
22937;SDS011;11634;42.734;23.298;2022-12-18T05:08:33;20.67;;;14.38;;
22937;SDS011;11634;42.734;23.298;2022-12-18T05:11:03;20.67;;;13.70;;
22937;SDS011;11634;42.734;23.298;2022-12-18T05:13:35;19.40;;;13.07;;
22937;SDS011;11634;42.734;23.298;2022-12-18T05:16:04;18.70;;;12.93;;
22937;SDS011;11634;42.734;23.298;2022-12-18T05:18:31;19.37;;;12.57;;
22937;SDS011;11634;42.734;23.298;2022-12-18T05:20:58;17.13;;;12.45;;
22937;SDS011;11634;42.734;23.298;2022-12-18T05:23:24;18.40;;;12.77;;
22937;SDS011;11634;42.734;23.298;2022-12-18T05:25:54;20.70;;;14.53;;
22937;SDS011;11634;42.734;23.298;2022-12-18T05:28:26;22.13;;;15.00;;
22937;SDS011;11634;42.734;23.298;2022-12-18T05:30:55;20.85;;;13.57;;
22937;SDS011;11634;42.734;23.298;2022-12-18T05:33:24;21.95;;;15.88;;
22937;SDS011;11634;42.734;23.298;2022-12-18T05:35:56;20.08;;;13.00;;
22937;SDS011;11634;42.734;23.298;2022-12-18T05:38:28;18.90;;;13.83;;
22937;SDS011;11634;42.734;23.298;2022-12-18T05:40:55;19.57;;;13.50;;
22937;SDS011;11634;42.734;23.298;2022-12-18T05:43:22;23.50;;;15.20;;
22937;SDS011;11634;42.734;23.298;2022-12-18T05:45:48;20.80;;;14.10;;
22937;SDS011;11634;42.734;23.298;2022-12-18T05:48:15;22.60;;;15.33;;
22937;SDS011;11634;42.734;23.298;2022-12-18T05:50:41;17.50;;;11.33;;
22937;SDS011;11634;42.734;23.298;2022-12-18T05:53:11;20.70;;;14.43;;
22937;SDS011;11634;42.734;23.298;2022-12-18T05:55:38;21.83;;;14.90;;
22937;SDS011;11634;42.734;23.298;2022-12-18T05:58:08;24.07;;;15.87;;
22937;SDS011;11634;42.734;23.298;2022-12-18T06:00:41;21.57;;;15.90;;
22937;SDS011;11634;42.734;23.298;2022-12-18T06:03:12;21.73;;;15.20;;
22937;SDS011;11634;42.734;23.298;2022-12-18T06:05:43;25.33;;;16.27;;
22937;SDS011;11634;42.734;23.298;2022-12-18T06:08:11;20.20;;;14.07;;
22937;SDS011;11634;42.734;23.298;2022-12-18T06:10:38;21.60;;;13.10;;
22937;SDS011;11634;42.734;23.298;2022-12-18T06:13:05;21.45;;;13.98;;
22937;SDS011;11634;42.734;23.298;2022-12-18T06:15:32;19.80;;;13.82;;
22937;SDS011;11634;42.734;23.298;2022-12-18T06:18:01;17.65;;;11.00;;
22937;SDS011;11634;42.734;23.298;2022-12-18T06:20:26;19.60;;;12.97;;
22937;SDS011;11634;42.734;23.298;2022-12-18T06:22:52;20.92;;;13.43;;
22937;SDS011;11634;42.734;23.298;2022-12-18T06:25:19;20.10;;;13.77;;
22937;SDS011;11634;42.734;23.298;2022-12-18T06:27:47;21.30;;;14.10;;
22937;SDS011;11634;42.734;23.298;2022-12-18T06:30:14;18.13;;;12.00;;
22937;SDS011;11634;42.734;23.298;2022-12-18T06:32:40;17.98;;;12.20;;
22937;SDS011;11634;42.734;23.298;2022-12-18T06:35:05;20.37;;;14.33;;
22937;SDS011;11634;42.734;23.298;2022-12-18T06:37:32;17.48;;;12.55;;
22937;SDS011;11634;42.734;23.298;2022-12-18T06:39:59;16.60;;;11.98;;
22937;SDS011;11634;42.734;23.298;2022-12-18T06:42:28;21.73;;;14.27;;
22937;SDS011;11634;42.734;23.298;2022-12-18T06:44:54;22.77;;;13.55;;
22937;SDS011;11634;42.734;23.298;2022-12-18T06:47:19;21.30;;;15.45;;
22937;SDS011;11634;42.734;23.298;2022-12-18T06:49:45;20.93;;;13.97;;
22937;SDS011;11634;42.734;23.298;2022-12-18T06:52:11;16.23;;;11.80;;
22937;SDS011;11634;42.734;23.298;2022-12-18T06:54:37;20.00;;;13.13;;
22937;SDS011;11634;42.734;23.298;2022-12-18T06:57:04;23.93;;;15.90;;
22937;SDS011;11634;42.734;23.298;2022-12-18T06:59:30;16.97;;;12.93;;
22937;SDS011;11634;42.734;23.298;2022-12-18T07:01:57;18.13;;;12.53;;
22937;SDS011;11634;42.734;23.298;2022-12-18T07:04:28;23.05;;;15.30;;
22937;SDS011;11634;42.734;23.298;2022-12-18T07:06:56;22.65;;;14.90;;
22937;SDS011;11634;42.734;23.298;2022-12-18T07:09:22;19.30;;;13.25;;
22937;SDS011;11634;42.734;23.298;2022-12-18T07:11:48;15.43;;;9.77;;
22937;SDS011;11634;42.734;23.298;2022-12-18T07:14:13;24.20;;;13.20;;
22937;SDS011;11634;42.734;23.298;2022-12-18T07:16:40;19.47;;;13.53;;
22937;SDS011;11634;42.734;23.298;2022-12-18T07:19:05;21.47;;;14.03;;
22937;SDS011;11634;42.734;23.298;2022-12-18T07:21:31;17.27;;;12.63;;
22937;SDS011;11634;42.734;23.298;2022-12-18T07:23:58;19.17;;;12.80;;
22937;SDS011;11634;42.734;23.298;2022-12-18T07:26:23;20.83;;;14.60;;
22937;SDS011;11634;42.734;23.298;2022-12-18T07:28:49;21.27;;;14.02;;
22937;SDS011;11634;42.734;23.298;2022-12-18T07:31:16;19.13;;;13.07;;
22937;SDS011;11634;42.734;23.298;2022-12-18T07:33:45;21.13;;;14.77;;
22937;SDS011;11634;42.734;23.298;2022-12-18T07:36:18;21.13;;;13.83;;
22937;SDS011;11634;42.734;23.298;2022-12-18T07:38:49;18.73;;;12.47;;
22937;SDS011;11634;42.734;23.298;2022-12-18T07:41:16;19.42;;;14.07;;
22937;SDS011;11634;42.734;23.298;2022-12-18T07:43:45;23.10;;;14.63;;
22937;SDS011;11634;42.734;23.298;2022-12-18T07:46:12;25.47;;;14.23;;
22937;SDS011;11634;42.734;23.298;2022-12-18T07:48:40;19.58;;;13.48;;
22937;SDS011;11634;42.734;23.298;2022-12-18T07:51:07;23.80;;;15.57;;
22937;SDS011;11634;42.734;23.298;2022-12-18T07:53:33;21.73;;;14.57;;
22937;SDS011;11634;42.734;23.298;2022-12-18T07:56:01;23.70;;;16.60;;
22937;SDS011;11634;42.734;23.298;2022-12-18T07:58:30;22.90;;;13.50;;
22937;SDS011;11634;42.734;23.298;2022-12-18T08:01:06;24.37;;;16.27;;
22937;SDS011;11634;42.734;23.298;2022-12-18T08:03:35;21.58;;;14.63;;
22937;SDS011;11634;42.734;23.298;2022-12-18T08:06:05;24.13;;;15.73;;
22937;SDS011;11634;42.734;23.298;2022-12-18T08:08:34;25.30;;;15.77;;
22937;SDS011;11634;42.734;23.298;2022-12-18T08:11:00;27.15;;;17.90;;
22937;SDS011;11634;42.734;23.298;2022-12-18T08:13:28;25.27;;;16.30;;
22937;SDS011;11634;42.734;23.298;2022-12-18T08:16:04;24.25;;;15.40;;
22937;SDS011;11634;42.734;23.298;2022-12-18T08:18:34;24.10;;;16.47;;
22937;SDS011;11634;42.734;23.298;2022-12-18T08:21:10;24.27;;;15.90;;
22937;SDS011;11634;42.734;23.298;2022-12-18T08:23:41;23.85;;;15.48;;
22937;SDS011;11634;42.734;23.298;2022-12-18T08:26:09;23.50;;;15.33;;
22937;SDS011;11634;42.734;23.298;2022-12-18T08:28:37;24.65;;;16.85;;
22937;SDS011;11634;42.734;23.298;2022-12-18T08:31:03;26.53;;;16.87;;
22937;SDS011;11634;42.734;23.298;2022-12-18T08:33:30;25.25;;;16.63;;
22937;SDS011;11634;42.734;23.298;2022-12-18T08:35:58;23.03;;;13.83;;
22937;SDS011;11634;42.734;23.298;2022-12-18T08:38:24;25.88;;;18.13;;
22937;SDS011;11634;42.734;23.298;2022-12-18T08:40:58;21.23;;;14.13;;
22937;SDS011;11634;42.734;23.298;2022-12-18T08:43:28;20.97;;;14.57;;
22937;SDS011;11634;42.734;23.298;2022-12-18T08:46:13;23.35;;;14.20;;
22937;SDS011;11634;42.734;23.298;2022-12-18T08:48:42;18.97;;;12.57;;
22937;SDS011;11634;42.734;23.298;2022-12-18T08:51:08;24.80;;;16.30;;
22937;SDS011;11634;42.734;23.298;2022-12-18T08:53:35;26.48;;;16.20;;
22937;SDS011;11634;42.734;23.298;2022-12-18T08:56:02;17.83;;;12.75;;
22937;SDS011;11634;42.734;23.298;2022-12-18T08:58:29;23.30;;;15.68;;
22937;SDS011;11634;42.734;23.298;2022-12-18T09:01:03;21.52;;;13.27;;
22937;SDS011;11634;42.734;23.298;2022-12-18T09:03:32;22.77;;;15.40;;
22937;SDS011;11634;42.734;23.298;2022-12-18T09:05:58;22.60;;;15.70;;
22937;SDS011;11634;42.734;23.298;2022-12-18T09:08:26;23.27;;;15.25;;
22937;SDS011;11634;42.734;23.298;2022-12-18T09:10:51;24.85;;;14.10;;
22937;SDS011;11634;42.734;23.298;2022-12-18T09:13:17;22.50;;;14.48;;
22937;SDS011;11634;42.734;23.298;2022-12-18T09:15:49;20.10;;;12.77;;
22937;SDS011;11634;42.734;23.298;2022-12-18T09:18:19;19.70;;;13.20;;
22937;SDS011;11634;42.734;23.298;2022-12-18T09:20:47;20.70;;;14.02;;
22937;SDS011;11634;42.734;23.298;2022-12-18T09:23:13;21.77;;;14.10;;
22937;SDS011;11634;42.734;23.298;2022-12-18T09:25:39;23.83;;;16.03;;
22937;SDS011;11634;42.734;23.298;2022-12-18T09:28:10;23.23;;;15.07;;
22937;SDS011;11634;42.734;23.298;2022-12-18T09:30:41;24.77;;;16.80;;
22937;SDS011;11634;42.734;23.298;2022-12-18T09:33:10;22.38;;;14.05;;
22937;SDS011;11634;42.734;23.298;2022-12-18T09:35:36;20.80;;;14.82;;
22937;SDS011;11634;42.734;23.298;2022-12-18T09:38:07;22.13;;;14.77;;
22937;SDS011;11634;42.734;23.298;2022-12-18T09:40:41;27.58;;;16.42;;
22937;SDS011;11634;42.734;23.298;2022-12-18T09:43:12;25.35;;;15.70;;
22937;SDS011;11634;42.734;23.298;2022-12-18T09:45:46;23.52;;;15.35;;
22937;SDS011;11634;42.734;23.298;2022-12-18T09:48:22;25.58;;;16.15;;
22937;SDS011;11634;42.734;23.298;2022-12-18T09:50:51;23.13;;;15.25;;
22937;SDS011;11634;42.734;23.298;2022-12-18T09:53:23;25.83;;;15.95;;
22937;SDS011;11634;42.734;23.298;2022-12-18T09:55:53;25.15;;;15.85;;
22937;SDS011;11634;42.734;23.298;2022-12-18T10:01:01;26.52;;;14.93;;
22937;SDS011;11634;42.734;23.298;2022-12-18T10:03:28;25.00;;;16.65;;
22937;SDS011;11634;42.734;23.298;2022-12-18T10:17:12;22.75;;;14.25;;
22937;SDS011;11634;42.734;23.298;2022-12-18T10:19:48;22.95;;;15.32;;
22937;SDS011;11634;42.734;23.298;2022-12-18T10:25:35;25.00;;;16.05;;
22937;SDS011;11634;42.734;23.298;2022-12-18T10:28:22;22.40;;;13.48;;
22937;SDS011;11634;42.734;23.298;2022-12-18T10:30:50;19.98;;;13.77;;
22937;SDS011;11634;42.734;23.298;2022-12-18T10:33:19;18.67;;;12.52;;
22937;SDS011;11634;42.734;23.298;2022-12-18T10:35:50;24.05;;;14.15;;
22937;SDS011;11634;42.734;23.298;2022-12-18T10:41:00;21.02;;;14.50;;
22937;SDS011;11634;42.734;23.298;2022-12-18T10:43:35;23.67;;;15.05;;
22937;SDS011;11634;42.734;23.298;2022-12-18T10:51:26;23.52;;;14.70;;
22937;SDS011;11634;42.734;23.298;2022-12-18T10:54:37;20.65;;;13.55;;
22937;SDS011;11634;42.734;23.298;2022-12-18T10:56:48;21.10;;;13.35;;
22937;SDS011;11634;42.734;23.298;2022-12-18T10:59:17;18.20;;;13.48;;
22937;SDS011;11634;42.734;23.298;2022-12-18T11:01:59;16.70;;;11.73;;
22937;SDS011;11634;42.734;23.298;2022-12-18T11:04:31;21.55;;;12.93;;
22937;SDS011;11634;42.734;23.298;2022-12-18T11:09:39;20.55;;;13.38;;
22937;SDS011;11634;42.734;23.298;2022-12-18T11:12:14;21.67;;;13.18;;
22937;SDS011;11634;42.734;23.298;2022-12-18T11:14:47;20.15;;;14.30;;
22937;SDS011;11634;42.734;23.298;2022-12-18T11:17:33;22.08;;;14.75;;
22937;SDS011;11634;42.734;23.298;2022-12-18T11:20:01;17.85;;;11.70;;
22937;SDS011;11634;42.734;23.298;2022-12-18T11:22:31;20.63;;;12.80;;
22937;SDS011;11634;42.734;23.298;2022-12-18T11:25:04;19.08;;;12.48;;
22937;SDS011;11634;42.734;23.298;2022-12-18T11:27:32;16.83;;;10.18;;
22937;SDS011;11634;42.734;23.298;2022-12-18T11:30:09;22.23;;;13.98;;
22937;SDS011;11634;42.734;23.298;2022-12-18T11:32:54;19.60;;;11.30;;
22937;SDS011;11634;42.734;23.298;2022-12-18T11:38:26;19.67;;;12.73;;
22937;SDS011;11634;42.734;23.298;2022-12-18T11:41:23;19.55;;;13.48;;
22937;SDS011;11634;42.734;23.298;2022-12-18T11:44:15;19.30;;;13.35;;
22937;SDS011;11634;42.734;23.298;2022-12-18T11:46:55;19.83;;;12.90;;
22937;SDS011;11634;42.734;23.298;2022-12-18T11:49:32;18.80;;;12.88;;
22937;SDS011;11634;42.734;23.298;2022-12-18T11:54:29;20.95;;;13.73;;
22937;SDS011;11634;42.734;23.298;2022-12-18T11:59:27;20.98;;;14.07;;
22937;SDS011;11634;42.734;23.298;2022-12-18T12:02:04;18.25;;;12.77;;
22937;SDS011;11634;42.734;23.298;2022-12-18T12:13:34;20.02;;;13.00;;
22937;SDS011;11634;42.734;23.298;2022-12-18T12:18:27;19.40;;;12.80;;
22937;SDS011;11634;42.734;23.298;2022-12-18T12:21:27;20.85;;;13.93;;
22937;SDS011;11634;42.734;23.298;2022-12-18T12:32:54;22.38;;;13.30;;
22937;SDS011;11634;42.734;23.298;2022-12-18T12:38:42;20.88;;;14.52;;
22937;SDS011;11634;42.734;23.298;2022-12-18T12:41:14;20.08;;;13.65;;
22937;SDS011;11634;42.734;23.298;2022-12-18T12:44:07;20.38;;;14.10;;
22937;SDS011;11634;42.734;23.298;2022-12-18T12:46:40;19.10;;;13.77;;
22937;SDS011;11634;42.734;23.298;2022-12-18T12:49:29;19.27;;;12.73;;
22937;SDS011;11634;42.734;23.298;2022-12-18T12:51:59;16.40;;;10.35;;
22937;SDS011;11634;42.734;23.298;2022-12-18T12:54:31;21.45;;;14.27;;
22937;SDS011;11634;42.734;23.298;2022-12-18T12:57:01;21.38;;;13.80;;
22937;SDS011;11634;42.734;23.298;2022-12-18T13:08:11;22.08;;;13.13;;
22937;SDS011;11634;42.734;23.298;2022-12-18T13:10:47;20.40;;;13.40;;
22937;SDS011;11634;42.734;23.298;2022-12-18T13:13:14;20.52;;;13.70;;
22937;SDS011;11634;42.734;23.298;2022-12-18T13:15:42;20.17;;;13.40;;
22937;SDS011;11634;42.734;23.298;2022-12-18T13:21:16;24.95;;;14.90;;
22937;SDS011;11634;42.734;23.298;2022-12-18T13:23:45;20.15;;;14.48;;
22937;SDS011;11634;42.734;23.298;2022-12-18T13:28:50;20.35;;;12.55;;
22937;SDS011;11634;42.734;23.298;2022-12-18T13:34:20;22.17;;;14.10;;
22937;SDS011;11634;42.734;23.298;2022-12-18T13:36:50;23.23;;;15.60;;
22937;SDS011;11634;42.734;23.298;2022-12-18T13:41:49;24.92;;;14.90;;
22937;SDS011;11634;42.734;23.298;2022-12-18T13:44:34;21.38;;;14.57;;
22937;SDS011;11634;42.734;23.298;2022-12-18T13:49:53;20.00;;;14.60;;
22937;SDS011;11634;42.734;23.298;2022-12-18T13:52:33;24.27;;;15.45;;
22937;SDS011;11634;42.734;23.298;2022-12-18T13:55:03;20.75;;;13.82;;
22937;SDS011;11634;42.734;23.298;2022-12-18T13:57:34;21.48;;;13.15;;
22937;SDS011;11634;42.734;23.298;2022-12-18T14:02:47;21.75;;;13.18;;
22937;SDS011;11634;42.734;23.298;2022-12-18T14:05:32;20.50;;;13.20;;
22937;SDS011;11634;42.734;23.298;2022-12-18T14:08:06;19.10;;;12.93;;
22937;SDS011;11634;42.734;23.298;2022-12-18T14:10:40;17.90;;;11.20;;
22937;SDS011;11634;42.734;23.298;2022-12-18T14:13:08;18.75;;;12.00;;
22937;SDS011;11634;42.734;23.298;2022-12-18T14:21:26;21.80;;;13.75;;
22937;SDS011;11634;42.734;23.298;2022-12-18T14:24:05;21.77;;;13.82;;
22937;SDS011;11634;42.734;23.298;2022-12-18T14:26:40;23.50;;;14.45;;
22937;SDS011;11634;42.734;23.298;2022-12-18T14:31:44;24.70;;;17.05;;
22937;SDS011;11634;42.734;23.298;2022-12-18T14:34:17;25.13;;;15.75;;
22937;SDS011;11634;42.734;23.298;2022-12-18T14:36:51;19.23;;;12.88;;
22937;SDS011;11634;42.734;23.298;2022-12-18T14:39:18;22.13;;;12.18;;
22937;SDS011;11634;42.734;23.298;2022-12-18T14:41:43;17.35;;;11.75;;
22937;SDS011;11634;42.734;23.298;2022-12-18T14:44:12;20.88;;;12.88;;
22937;SDS011;11634;42.734;23.298;2022-12-18T14:46:42;19.00;;;12.68;;
22937;SDS011;11634;42.734;23.298;2022-12-18T14:49:19;19.02;;;11.80;;
22937;SDS011;11634;42.734;23.298;2022-12-18T14:55:14;20.38;;;11.65;;
22937;SDS011;11634;42.734;23.298;2022-12-18T14:57:42;19.73;;;13.18;;
22937;SDS011;11634;42.734;23.298;2022-12-18T15:00:21;17.67;;;12.25;;
22937;SDS011;11634;42.734;23.298;2022-12-18T15:02:49;20.60;;;13.15;;
22937;SDS011;11634;42.734;23.298;2022-12-18T15:05:25;18.88;;;12.55;;
22937;SDS011;11634;42.734;23.298;2022-12-18T15:07:57;20.10;;;12.70;;
22937;SDS011;11634;42.734;23.298;2022-12-18T15:10:51;21.60;;;13.30;;
22937;SDS011;11634;42.734;23.298;2022-12-18T15:13:20;19.73;;;12.50;;
22937;SDS011;11634;42.734;23.298;2022-12-18T15:15:51;22.70;;;14.20;;
22937;SDS011;11634;42.734;23.298;2022-12-18T15:18:28;19.52;;;12.75;;
22937;SDS011;11634;42.734;23.298;2022-12-18T15:21:07;19.08;;;12.57;;
22937;SDS011;11634;42.734;23.298;2022-12-18T15:23:36;20.02;;;12.70;;
22937;SDS011;11634;42.734;23.298;2022-12-18T15:26:22;20.17;;;12.30;;
22937;SDS011;11634;42.734;23.298;2022-12-18T15:28:51;21.65;;;13.85;;
22937;SDS011;11634;42.734;23.298;2022-12-18T15:31:32;20.67;;;11.52;;
22937;SDS011;11634;42.734;23.298;2022-12-18T15:34:12;15.67;;;10.70;;
22937;SDS011;11634;42.734;23.298;2022-12-18T15:36:45;17.55;;;11.57;;
22937;SDS011;11634;42.734;23.298;2022-12-18T15:39:11;19.45;;;13.73;;
22937;SDS011;11634;42.734;23.298;2022-12-18T15:41:39;21.90;;;13.15;;
22937;SDS011;11634;42.734;23.298;2022-12-18T15:44:22;22.60;;;12.82;;
22937;SDS011;11634;42.734;23.298;2022-12-18T15:46:52;20.73;;;12.95;;
22937;SDS011;11634;42.734;23.298;2022-12-18T15:49:18;21.38;;;13.82;;
22937;SDS011;11634;42.734;23.298;2022-12-18T15:51:44;21.05;;;14.43;;
22937;SDS011;11634;42.734;23.298;2022-12-18T15:54:14;19.65;;;12.75;;
22937;SDS011;11634;42.734;23.298;2022-12-18T15:57:03;20.08;;;13.15;;
22937;SDS011;11634;42.734;23.298;2022-12-18T15:59:50;24.25;;;14.13;;
22937;SDS011;11634;42.734;23.298;2022-12-18T16:02:18;19.52;;;12.65;;
22937;SDS011;11634;42.734;23.298;2022-12-18T16:04:44;23.95;;;14.43;;
22937;SDS011;11634;42.734;23.298;2022-12-18T16:07:12;23.63;;;13.93;;
22937;SDS011;11634;42.734;23.298;2022-12-18T16:09:39;23.85;;;14.32;;
22937;SDS011;11634;42.734;23.298;2022-12-18T16:12:06;22.52;;;13.80;;
22937;SDS011;11634;42.734;23.298;2022-12-18T16:14:46;21.38;;;13.95;;
22937;SDS011;11634;42.734;23.298;2022-12-18T16:17:15;21.88;;;13.95;;
22937;SDS011;11634;42.734;23.298;2022-12-18T16:19:40;23.33;;;14.38;;
22937;SDS011;11634;42.734;23.298;2022-12-18T16:22:24;20.50;;;13.30;;
22937;SDS011;11634;42.734;23.298;2022-12-18T16:24:52;22.17;;;13.07;;
22937;SDS011;11634;42.734;23.298;2022-12-18T16:27:20;22.30;;;14.30;;
22937;SDS011;11634;42.734;23.298;2022-12-18T16:29:50;26.15;;;14.40;;
22937;SDS011;11634;42.734;23.298;2022-12-18T16:32:19;21.83;;;13.80;;
22937;SDS011;11634;42.734;23.298;2022-12-18T16:34:46;26.05;;;13.38;;
22937;SDS011;11634;42.734;23.298;2022-12-18T16:37:14;22.20;;;14.63;;
22937;SDS011;11634;42.734;23.298;2022-12-18T16:39:41;20.08;;;13.32;;
22937;SDS011;11634;42.734;23.298;2022-12-18T16:42:15;26.38;;;16.70;;